ADDS METAR Data INFO
IDs: Format: Raw Decoded Include TAF

Data at: 0932 UTC 25 Jun 2018

KHIB 250853Z AUTO 00000KT 10SM CLR 06/03 A3013 RMK AO2 SLP209 T00560033 56008
KHIB 250753Z AUTO 00000KT 10SM CLR 06/03 A3013 RMK AO2 SLP210 T00610028
KHIB 250653Z AUTO 07003KT 10SM CLR 06/03 A3015 RMK AO2 SLP214 T00610028
KHIB 250553Z AUTO 08005KT 10SM CLR 09/01 A3015 RMK AO2 SLP216 T00940011 10178 20078 401940078 50002
KHIB 250453Z AUTO 10004KT 10SM CLR 09/02 A3017 RMK AO2 SLP222 T00940017
KHIB 250353Z AUTO 09005KT 10SM CLR 11/04 A3015 RMK AO2 SLP215 T01110039
KHIB 250253Z AUTO 09005KT 10SM CLR 11/06 A3015 RMK AO2 SLP214 T01110061 51018
KHIB 250153Z AUTO 13007KT 10SM CLR 13/07 A3014 RMK AO2 SLP210 T01280067
KHIB 250053Z AUTO 12009KT 10SM CLR 16/08 A3012 RMK AO2 SLP205 T01610083
KHIB 242353Z AUTO 13011KT 10SM CLR 18/09 A3009 RMK AO2 SLP193 T01780094 10194 20167 53002
KHIB 242253Z AUTO 11010KT 10SM CLR 19/09 A3008 RMK AO2 SLP188 T01940089
KHIB 242153Z AUTO 10010KT 10SM CLR 19/09 A3009 RMK AO2 SLP194 T01940089
KHIB 242053Z AUTO 11007G19KT 10SM CLR 18/09 A3008 RMK AO2 SLP190 T01830094 50002
KHIB 241953Z AUTO 11007G15KT 10SM CLR 19/11 A3009 RMK AO2 SLP191 T01890106
KHIB 241853Z AUTO 09011G16KT 10SM CLR 19/11 A3009 RMK AO2 SLP192 T01890111
KHIB 241753Z AUTO 10008KT 10SM CLR 17/09 A3008 RMK AO2 SLP187 T01720094 10172 20106 53011
KHIB 241653Z AUTO 11008G16KT 10SM BKN100 16/09 A3006 RMK AO2 SLP183 T01610094
KHIB 241553Z AUTO 10011G16KT 10SM CLR 15/09 A3005 RMK AO2 SLP178 T01500089
KHIB 241453Z AUTO 10008KT 10SM OVC110 13/08 A3004 RMK AO2 SLP175 T01330083 53021
KHIB 241353Z AUTO 10009KT 10SM CLR 13/09 A3001 RMK AO2 SLP164 T01330089
KHIB 241253Z AUTO 11006KT 10SM FEW050 SCT075 12/08 A3000 RMK AO2 SLP160 T01170083
KHIB 241153Z AUTO 12007KT 10SM FEW075 11/08 A2998 RMK AO2 SLP152 T01060083 10139 20106 53016
KHIB 241053Z AUTO 11006KT 10SM CLR 11/08 A2996 RMK AO2 SLP146 T01110078
KHIB 240953Z AUTO 11010KT 10SM OVC090 12/08 A2994 RMK AO2 SLP138 T01170078
KHIB 240853Z AUTO 10006KT 10SM SCT075 12/08 A2993 RMK AO2 SLP135 T01170078 53018
KHIB 240753Z AUTO 09007KT 10SM FEW070 13/07 A2992 RMK AO2 SLP129 T01280072
KHIB 240653Z AUTO 12006KT 10SM BKN120 13/08 A2989 RMK AO2 SLP120 T01280078
KHIB 240553Z AUTO 13009KT 10SM SCT120 14/08 A2988 RMK AO2 SLP114 T01390083 10233 20133 402720122 51017
KHIB 240453Z AUTO 15005KT 10SM SCT120 15/11 A2986 RMK AO2 SLP110 T01500111
KHIB 240353Z AUTO 15006KT 10SM FEW060 17/12 A2985 RMK AO2 SLP105 T01670117
KHIB 240253Z AUTO 12006KT 10SM CLR 19/16 A2982 RMK AO2 LTG DSNT SW SLP096 T01890156 53020
KHIB 240153Z AUTO 06005KT 10SM SCT120 22/17 A2979 RMK AO2 SLP086 T02170167
KHIB 240053Z AUTO 05004KT 10SM BKN075 23/16 A2978 RMK AO2 SLP080 T02280161
KHIB 232353Z AUTO 05005KT 10SM CLR 23/15 A2976 RMK AO2 SLP076 T02330150 10272 20233 53004
KHIB 232253Z AUTO 07009KT 10SM FEW070 SCT110 24/14 A2976 RMK AO2 SLP076 T02390144
KHIB 232153Z AUTO 35005KT 10SM SCT065 BKN110 27/15 A2975 RMK AO2 SLP070 T02670150